createdAt,value
2024-04-13T00:00:56.125Z,21.78
2024-04-13T00:03:25.138Z,21.83
2024-04-13T00:05:52.716Z,21.86
2024-04-13T00:08:20.144Z,21.86
2024-04-13T00:10:47.665Z,21.86
2024-04-13T00:13:15.983Z,21.88
2024-04-13T00:15:43.437Z,21.90
2024-04-13T00:18:11.072Z,21.94
2024-04-13T00:20:38.587Z,21.96
2024-04-13T00:23:06.017Z,21.99
2024-04-13T00:25:33.508Z,21.99
2024-04-13T00:28:00.944Z,21.99
2024-04-13T00:30:28.394Z,22.00
2024-04-13T00:32:55.957Z,22.03
2024-04-13T00:35:24.053Z,22.04
2024-04-13T00:37:51.685Z,22.06
2024-04-13T00:40:19.163Z,22.09
2024-04-13T00:42:46.586Z,22.14
2024-04-13T00:45:14.084Z,22.18
2024-04-13T00:47:41.969Z,22.20
2024-04-13T00:50:13.268Z,22.22
2024-04-13T00:52:44.439Z,22.23
2024-04-13T00:55:11.971Z,22.24
2024-04-13T00:57:40.494Z,22.23
2024-04-13T01:00:08.456Z,22.24
2024-04-13T01:02:35.943Z,22.26
2024-04-13T01:05:03.429Z,22.27
2024-04-13T01:07:30.891Z,22.29
2024-04-13T01:09:59.581Z,22.31
2024-04-13T01:12:27.897Z,22.32
2024-04-13T01:14:56.011Z,22.34
2024-04-13T01:17:23.558Z,22.33
2024-04-13T01:19:51.021Z,22.29
2024-04-13T01:22:20.124Z,22.27
2024-04-13T01:24:47.616Z,22.27
2024-04-13T01:27:15.105Z,22.29
2024-04-13T01:29:42.572Z,22.31
2024-04-13T01:32:10.069Z,22.32
2024-04-13T01:34:37.542Z,22.32
2024-04-13T01:37:05.134Z,22.33
2024-04-13T01:39:32.993Z,22.33
2024-04-13T01:42:00.522Z,22.34
2024-04-13T01:44:28.323Z,22.38
2024-04-13T01:46:59.537Z,22.43
2024-04-13T01:49:26.975Z,22.44
2024-04-13T01:51:54.445Z,22.41
2024-04-13T01:54:21.902Z,22.41
2024-04-13T01:56:49.442Z,22.42
2024-04-13T01:59:16.893Z,22.42
2024-04-13T02:01:44.331Z,22.43
2024-04-13T02:04:12.449Z,22.43
2024-04-13T02:06:40.210Z,22.44
2024-04-13T02:09:07.885Z,22.44
2024-04-13T02:11:35.317Z,22.44
2024-04-13T02:14:02.774Z,22.43
2024-04-13T02:16:30.691Z,22.42
2024-04-13T02:18:58.235Z,22.43
2024-04-13T02:21:25.894Z,22.44
2024-04-13T02:23:55.059Z,22.43
2024-04-13T02:26:22.540Z,22.43
2024-04-13T02:28:50.073Z,22.43
2024-04-13T02:31:18.349Z,22.43
2024-04-13T02:33:46.002Z,22.42
2024-04-13T02:36:14.048Z,22.41
2024-04-13T02:38:43.150Z,22.39
2024-04-13T02:41:10.781Z,22.38
2024-04-13T02:43:38.364Z,22.38
2024-04-13T02:46:10.421Z,22.38
2024-04-13T02:48:43.130Z,22.37
2024-04-13T02:51:11.431Z,22.34
2024-04-13T02:53:39.082Z,22.31
2024-04-13T02:56:07.788Z,22.31
2024-04-13T02:58:35.385Z,22.30
2024-04-13T03:01:03.905Z,22.31
2024-04-13T03:03:31.781Z,22.31
2024-04-13T03:06:04.678Z,22.31
2024-04-13T03:08:32.376Z,22.27
2024-04-13T03:11:00.956Z,22.27
2024-04-13T03:13:29.152Z,22.28
2024-04-13T03:16:01.017Z,22.26
2024-04-13T03:18:28.629Z,22.25
2024-04-13T03:20:56.500Z,22.21
2024-04-13T03:23:24.768Z,22.16
2024-04-13T03:25:52.329Z,22.09
2024-04-13T03:28:29.231Z,22.00
2024-04-13T03:30:56.908Z,21.92
2024-04-13T03:33:25.086Z,21.86
2024-04-13T03:35:52.852Z,21.84
2024-04-13T03:38:20.506Z,21.82
2024-04-13T03:40:48.121Z,21.81
2024-04-13T03:43:16.300Z,21.79
2024-04-13T03:45:53.135Z,21.79
2024-04-13T03:48:21.035Z,21.80
2024-04-13T03:50:48.803Z,21.81
2024-04-13T03:53:16.477Z,21.83
2024-04-13T03:55:44.125Z,21.86
2024-04-13T03:58:11.768Z,21.90
2024-04-13T04:00:39.557Z,21.93
2024-04-13T04:03:07.306Z,21.94
2024-04-13T04:05:35.030Z,21.95
2024-04-13T04:08:02.689Z,21.95
2024-04-13T04:10:30.396Z,21.98
2024-04-13T04:13:02.272Z,22.01
2024-04-13T04:15:30.228Z,22.02
2024-04-13T04:17:58.102Z,22.05
2024-04-13T04:20:26.140Z,22.09
2024-04-13T04:22:53.953Z,22.12
2024-04-13T04:25:21.724Z,22.16
2024-04-13T04:27:51.249Z,22.20
2024-04-13T04:30:21.264Z,22.23
2024-04-13T04:32:51.387Z,22.28
2024-04-13T04:35:21.294Z,22.28
2024-04-13T04:37:51.237Z,22.28
2024-04-13T04:40:24.305Z,22.28
2024-04-13T04:42:55.001Z,22.28
2024-04-13T04:45:24.647Z,22.32
2024-04-13T04:47:56.960Z,22.42
2024-04-13T04:50:28.285Z,22.52
2024-04-13T04:52:58.433Z,22.62
2024-04-13T04:55:29.175Z,22.74
2024-04-13T04:57:59.598Z,22.92
2024-04-13T05:00:30.353Z,23.14
2024-04-13T05:03:00.488Z,23.36
2024-04-13T05:05:30.701Z,23.65
2024-04-13T05:08:00.445Z,24.10
2024-04-13T05:10:31.344Z,24.63
2024-04-13T05:13:03.350Z,25.16
2024-04-13T05:15:34.422Z,25.61
2024-04-13T05:18:06.534Z,25.99
2024-04-13T05:20:38.414Z,26.37
2024-04-13T05:23:09.363Z,26.77
2024-04-13T05:25:39.509Z,27.18
2024-04-13T05:35:49.744Z,28.93
2024-04-13T05:38:17.233Z,29.30
2024-04-13T05:40:44.751Z,29.66
2024-04-13T05:43:13.356Z,29.96
2024-04-13T05:45:41.238Z,30.22
2024-04-13T05:48:08.857Z,30.52
2024-04-13T05:50:36.442Z,30.81
2024-04-13T05:53:04.319Z,31.04
2024-04-13T05:55:32.522Z,31.33
2024-04-13T05:57:59.970Z,31.56
2024-04-13T06:00:27.787Z,31.65
2024-04-13T06:02:55.433Z,31.64
2024-04-13T06:05:23.220Z,31.61
2024-04-13T06:07:54.472Z,31.59
2024-04-13T06:10:22.305Z,31.56
2024-04-13T06:12:49.782Z,31.73
2024-04-13T06:15:17.875Z,32.10
2024-04-13T06:17:45.441Z,32.62
2024-04-13T06:20:12.903Z,33.16
2024-04-13T06:22:40.376Z,33.72
2024-04-13T06:32:51.976Z,35.36
2024-04-13T06:42:58.341Z,35.02
2024-04-13T06:45:25.897Z,34.96
2024-04-13T06:47:53.454Z,34.90
2024-04-13T06:50:20.984Z,34.80
2024-04-13T06:52:48.778Z,34.58
2024-04-13T06:55:17.865Z,34.38
2024-04-13T06:57:45.378Z,34.27
2024-04-13T07:00:13.335Z,34.21
2024-04-13T07:02:41.566Z,34.21
2024-04-13T07:05:09.349Z,34.16
2024-04-13T07:07:38.010Z,34.07
2024-04-13T07:10:06.545Z,34.08
2024-04-13T07:12:34.300Z,34.03
2024-04-13T07:15:02.149Z,33.90
2024-04-13T07:17:29.848Z,33.64
2024-04-13T07:21:06.881Z,31.92
2024-04-13T07:23:34.359Z,32.67
2024-04-13T07:26:02.410Z,32.61
2024-04-13T07:28:31.235Z,32.51
2024-04-13T07:30:59.592Z,32.35
2024-04-13T07:33:27.572Z,32.17
2024-04-13T07:43:38.996Z,31.33
2024-04-13T07:46:06.644Z,31.04
2024-04-13T07:48:34.320Z,30.73
2024-04-13T07:51:03.262Z,30.52
2024-04-13T07:53:32.032Z,30.39
2024-04-13T07:56:00.017Z,30.36
2024-04-13T07:58:27.574Z,30.41
2024-04-13T08:00:55.182Z,30.44
2024-04-13T08:03:24.876Z,30.49
2024-04-13T08:05:52.635Z,30.50
2024-04-13T08:08:20.253Z,30.46
2024-04-13T08:10:48.142Z,30.44
2024-04-13T08:13:16.612Z,30.53
2024-04-13T08:15:44.345Z,30.60
2024-04-13T08:18:12.037Z,30.65
2024-04-13T08:20:40.364Z,30.69
2024-04-13T08:23:08.790Z,30.73
2024-04-13T08:25:36.333Z,30.76
2024-04-13T08:28:04.282Z,30.74
2024-04-13T08:30:32.037Z,30.77
2024-04-13T08:33:00.514Z,30.82
2024-04-13T08:35:28.257Z,30.86
2024-04-13T08:37:55.717Z,30.80
2024-04-13T08:40:23.072Z,30.71
2024-04-13T08:42:53.653Z,30.63
2024-04-13T08:45:24.189Z,30.58
2024-04-13T08:47:51.769Z,30.53
2024-04-13T08:50:19.194Z,30.49
2024-04-13T08:52:57.850Z,30.47
2024-04-13T08:55:25.593Z,30.40
2024-04-13T08:57:52.960Z,30.33
2024-04-13T09:00:20.974Z,30.25
2024-04-13T09:02:48.464Z,30.21
2024-04-13T09:05:16.385Z,30.23
2024-04-13T09:07:46.270Z,30.23
2024-04-13T09:10:16.277Z,30.19
2024-04-13T09:12:43.755Z,30.15
2024-04-13T09:15:11.819Z,30.16
2024-04-13T09:17:40.010Z,30.22
2024-04-13T09:20:09.422Z,30.30
2024-04-13T09:22:37.490Z,30.38
2024-04-13T09:25:04.984Z,30.39
2024-04-13T09:27:34.266Z,30.42
2024-04-13T09:30:09.310Z,30.43
2024-04-13T09:32:36.994Z,30.36
2024-04-13T09:35:11.566Z,30.29
2024-04-13T09:37:39.361Z,30.31
2024-04-13T09:40:07.719Z,30.31
2024-04-13T09:42:35.263Z,30.29
2024-04-13T09:45:12.208Z,30.19
2024-04-13T09:47:39.731Z,30.05
2024-04-13T09:50:07.278Z,29.95
2024-04-13T09:52:35.057Z,29.83
2024-04-13T09:55:02.518Z,29.67
2024-04-13T09:57:29.922Z,29.57
2024-04-13T09:59:57.364Z,29.57
2024-04-13T10:02:24.755Z,29.60
2024-04-13T10:04:52.099Z,29.69
2024-04-13T10:07:19.474Z,29.79
2024-04-13T10:09:48.678Z,29.86
2024-04-13T10:12:21.158Z,29.93
2024-04-13T10:14:48.548Z,29.99
2024-04-13T10:17:16.024Z,30.06
2024-04-13T10:19:46.088Z,30.07
2024-04-13T10:22:23.901Z,30.06
2024-04-13T10:25:03.777Z,30.11
2024-04-13T10:27:32.897Z,30.21
2024-04-13T10:30:00.740Z,30.33
2024-04-13T10:32:28.685Z,30.46
2024-04-13T10:34:59.442Z,30.54
2024-04-13T10:37:27.887Z,30.57
2024-04-13T10:39:59.078Z,30.49
2024-04-13T10:42:42.098Z,30.40
2024-04-13T10:45:16.410Z,30.32
2024-04-13T10:47:44.214Z,30.25
2024-04-13T10:50:12.163Z,30.23
2024-04-13T10:52:39.497Z,30.24
2024-04-13T10:55:07.064Z,30.29
2024-04-13T10:57:34.462Z,30.37
2024-04-13T11:00:02.199Z,30.42
2024-04-13T11:02:29.766Z,30.43
2024-04-13T11:04:57.316Z,30.45
2024-04-13T11:07:24.772Z,30.46
2024-04-13T11:09:52.203Z,30.46
2024-04-13T11:12:19.595Z,30.45
2024-04-13T11:14:48.436Z,30.46
2024-04-13T11:17:16.224Z,30.51
2024-04-13T11:19:43.828Z,30.50
2024-04-13T11:22:11.309Z,30.47
2024-04-13T11:24:39.014Z,30.48
2024-04-13T11:27:06.761Z,30.53
2024-04-13T11:29:34.726Z,30.61
2024-04-13T11:32:02.729Z,30.70
2024-04-13T11:34:30.132Z,30.63
2024-04-13T11:37:04.094Z,30.53
2024-04-13T11:39:38.081Z,30.52
2024-04-13T11:42:07.016Z,30.53
2024-04-13T11:44:37.968Z,30.50
2024-04-13T11:47:05.478Z,30.46
2024-04-13T11:49:35.045Z,30.50
2024-04-13T11:52:04.450Z,30.55
2024-04-13T11:54:32.473Z,30.62
2024-04-13T11:56:59.951Z,30.59
2024-04-13T11:59:27.263Z,30.57
2024-04-13T12:01:55.509Z,30.59
2024-04-13T12:04:23.303Z,30.61
2024-04-13T12:06:50.992Z,30.64
2024-04-13T12:09:18.415Z,30.63
2024-04-13T12:11:45.716Z,30.58
2024-04-13T12:14:15.098Z,30.48
2024-04-13T12:16:45.305Z,30.38
2024-04-13T12:19:12.754Z,30.34
2024-04-13T12:21:40.230Z,30.34
2024-04-13T12:24:07.891Z,30.42
2024-04-13T12:26:35.723Z,30.44
2024-04-13T12:29:03.051Z,30.38
2024-04-13T12:31:30.340Z,30.35
2024-04-13T12:33:57.723Z,30.35
2024-04-13T12:36:25.070Z,30.34
2024-04-13T12:38:52.514Z,30.34
2024-04-13T12:41:19.812Z,30.31
2024-04-13T12:43:47.141Z,30.22
2024-04-13T12:46:14.415Z,30.13
2024-04-13T12:48:42.342Z,30.01
2024-04-13T12:51:09.736Z,29.94
2024-04-13T12:53:37.022Z,29.96
2024-04-13T12:56:04.682Z,30.03
2024-04-13T12:58:31.995Z,30.10
2024-04-13T13:00:59.323Z,30.14
2024-04-13T13:03:27.584Z,30.13
2024-04-13T13:05:55.924Z,30.07
2024-04-13T13:08:24.394Z,30.03
2024-04-13T13:10:51.691Z,30.04
2024-04-13T13:13:18.996Z,30.06
2024-04-13T13:15:46.641Z,30.05
2024-04-13T13:18:14.005Z,30.10
2024-04-13T13:20:44.380Z,30.17
2024-04-13T13:23:11.759Z,30.14
2024-04-13T13:25:39.036Z,30.09
2024-04-13T13:28:07.431Z,30.06
2024-04-13T13:30:38.758Z,30.01
2024-04-13T13:33:06.223Z,29.90
2024-04-13T13:35:33.611Z,29.80
2024-04-13T13:38:01.002Z,29.76
2024-04-13T13:40:29.680Z,29.73
2024-04-13T13:42:57.181Z,29.69
2024-04-13T13:45:24.627Z,29.64
2024-04-13T13:47:52.473Z,29.56
2024-04-13T13:50:20.008Z,29.50
2024-04-13T13:52:50.125Z,29.44
2024-04-13T13:55:19.146Z,29.39
2024-04-13T13:57:46.686Z,29.38
2024-04-13T14:00:14.559Z,29.35
2024-04-13T14:02:41.923Z,29.38
2024-04-13T14:05:09.707Z,29.43
2024-04-13T14:07:37.387Z,29.49
2024-04-13T14:10:05.182Z,29.55
2024-04-13T14:17:32.459Z,27.33
2024-04-13T14:19:59.888Z,29.24
2024-04-13T14:22:28.990Z,29.32
2024-04-13T14:24:55.931Z,29.25
2024-04-13T14:27:23.287Z,29.22
2024-04-13T14:29:50.273Z,29.19
2024-04-13T14:32:17.123Z,29.10
2024-04-13T14:34:44.336Z,29.02
2024-04-13T14:37:11.333Z,28.98
2024-04-13T14:39:39.538Z,28.91
2024-04-13T14:42:07.819Z,28.79
2024-04-13T14:44:36.333Z,28.71
2024-04-13T14:47:05.287Z,28.67
2024-04-13T14:49:32.419Z,28.64
2024-04-13T14:51:59.414Z,28.61
2024-04-13T14:54:27.754Z,28.56
2024-04-13T14:56:54.570Z,28.53
2024-04-13T14:59:21.741Z,28.50
2024-04-13T15:01:48.690Z,28.45
2024-04-13T15:04:15.797Z,28.33
2024-04-13T15:06:42.870Z,28.23
2024-04-13T15:09:09.699Z,28.16
2024-04-13T15:11:37.044Z,28.10
2024-04-13T15:14:03.928Z,28.08
2024-04-13T15:16:30.864Z,28.09
2024-04-13T15:18:58.877Z,28.08
2024-04-13T15:21:26.027Z,28.08
2024-04-13T15:23:58.245Z,28.07
2024-04-13T15:26:43.105Z,28.10
2024-04-13T15:29:32.196Z,28.12
2024-04-13T15:32:00.119Z,28.15
2024-04-13T15:34:27.862Z,28.16
2024-04-13T15:36:55.314Z,28.14
2024-04-13T15:39:23.166Z,28.10
2024-04-13T15:41:50.435Z,28.05
2024-04-13T15:44:20.632Z,27.99
2024-04-13T15:46:48.060Z,27.90
2024-04-13T15:49:30.281Z,27.87
2024-04-13T15:51:57.456Z,27.85
2024-04-13T15:54:24.283Z,27.83
2024-04-13T15:56:51.208Z,27.78
2024-04-13T15:59:17.965Z,27.73
2024-04-13T16:01:46.233Z,27.71
2024-04-13T16:04:13.262Z,27.66
2024-04-13T16:06:41.037Z,27.63
2024-04-13T16:09:08.348Z,27.60
2024-04-13T16:11:35.097Z,27.57
2024-04-13T16:14:02.317Z,27.49
2024-04-13T16:16:32.150Z,27.47
2024-04-13T16:19:01.632Z,27.42
2024-04-13T16:21:29.287Z,27.39
2024-04-13T16:23:56.102Z,27.30
2024-04-13T16:26:23.066Z,27.30
2024-04-13T16:28:49.975Z,27.27
2024-04-13T16:31:16.860Z,27.25
2024-04-13T16:33:43.742Z,27.23
2024-04-13T16:36:10.698Z,27.18
2024-04-13T16:38:37.485Z,27.14
2024-04-13T16:41:04.992Z,27.08
2024-04-13T16:43:34.562Z,27.04
2024-04-13T16:46:01.425Z,26.98
2024-04-13T16:48:28.454Z,26.90
2024-04-13T16:50:59.397Z,26.85
2024-04-13T16:53:26.901Z,26.82
2024-04-13T16:55:53.745Z,26.81
2024-04-13T16:58:20.933Z,26.79
2024-04-13T17:00:48.148Z,26.80
2024-04-13T17:03:15.984Z,26.79
2024-04-13T17:05:43.092Z,26.77
2024-04-13T17:08:10.368Z,26.75
2024-04-13T17:10:37.211Z,26.74
2024-04-13T17:13:04.806Z,26.73
2024-04-13T17:15:31.663Z,26.71
2024-04-13T17:17:59.170Z,26.68
2024-04-13T17:20:26.147Z,26.65
2024-04-13T17:22:53.293Z,26.61
2024-04-13T17:25:22.791Z,26.57
2024-04-13T17:27:50.087Z,26.52
2024-04-13T17:30:17.148Z,26.49
2024-04-13T17:32:43.995Z,26.47
2024-04-13T17:35:10.713Z,26.46
2024-04-13T17:37:37.791Z,26.41
2024-04-13T17:40:06.317Z,26.36
2024-04-13T17:42:33.151Z,26.30
2024-04-13T17:44:59.850Z,26.24
2024-04-13T17:47:26.710Z,26.18
2024-04-13T17:49:54.016Z,26.13
2024-04-13T17:52:20.731Z,26.07
2024-04-13T17:54:47.761Z,26.01
2024-04-13T17:57:14.995Z,25.92
2024-04-13T17:59:41.641Z,25.87
2024-04-13T18:02:08.557Z,25.80
2024-04-13T18:04:36.536Z,25.75
2024-04-13T18:07:03.883Z,25.67
2024-04-13T18:09:30.566Z,25.60
2024-04-13T18:11:57.354Z,25.54
2024-04-13T18:14:24.094Z,25.49
2024-04-13T18:16:50.948Z,25.40
2024-04-13T18:19:17.816Z,25.40
2024-04-13T18:21:44.508Z,25.38
2024-04-13T18:24:14.435Z,25.35
2024-04-13T18:26:41.942Z,25.29
2024-04-13T18:29:08.576Z,25.30
2024-04-13T18:31:37.400Z,25.28
2024-04-13T18:34:06.420Z,25.25
2024-04-13T18:36:33.626Z,25.22
2024-04-13T18:39:00.394Z,25.17
2024-04-13T18:41:27.215Z,25.16
2024-04-13T18:43:54.172Z,25.13
2024-04-13T18:46:20.909Z,25.12
2024-04-13T18:48:48.245Z,25.12
2024-04-13T18:51:15.149Z,25.13
2024-04-13T18:53:42.170Z,25.12
2024-04-13T18:56:11.816Z,25.10
2024-04-13T18:58:38.593Z,25.07
2024-04-13T19:01:08.635Z,25.02
2024-04-13T19:03:42.817Z,24.98
2024-04-13T19:06:16.417Z,24.97
2024-04-13T19:08:43.542Z,24.96
2024-04-13T19:11:10.227Z,24.96
2024-04-13T19:16:22.669Z,24.95
2024-04-13T19:18:49.685Z,24.96
2024-04-13T19:21:16.439Z,24.95
2024-04-13T19:23:43.484Z,24.95
2024-04-13T19:26:10.307Z,24.96
2024-04-13T19:28:37.335Z,24.95
2024-04-13T19:31:04.546Z,24.94
2024-04-13T19:33:31.717Z,24.91
2024-04-13T19:35:58.640Z,24.87
2024-04-13T19:38:26.158Z,24.84
2024-04-13T19:40:53.070Z,24.81
2024-04-13T19:43:20.227Z,24.80
2024-04-13T19:45:47.989Z,24.79
2024-04-13T19:48:15.092Z,24.77
2024-04-13T19:50:42.526Z,24.74
2024-04-13T19:53:10.472Z,24.71
2024-04-13T19:55:37.171Z,24.67
2024-04-13T19:58:04.158Z,24.63
2024-04-13T20:00:31.362Z,24.58
2024-04-13T20:02:58.302Z,24.53
2024-04-13T20:05:25.114Z,24.47
2024-04-13T20:07:51.899Z,24.43
2024-04-13T20:10:18.777Z,24.36
2024-04-13T20:12:47.115Z,24.32
2024-04-13T20:15:32.687Z,24.26
2024-04-13T20:18:18.004Z,24.20
2024-04-13T20:20:44.808Z,24.14
2024-04-13T20:23:11.533Z,24.07
2024-04-13T20:25:39.597Z,24.01
2024-04-13T20:28:06.580Z,23.91
2024-04-13T20:30:34.058Z,23.86
2024-04-13T20:33:01.547Z,23.80
2024-04-13T20:35:28.917Z,23.71
2024-04-13T20:37:56.332Z,23.68
2024-04-13T20:40:23.520Z,23.61
2024-04-13T20:42:50.837Z,23.55
2024-04-13T20:45:18.395Z,23.50
2024-04-13T20:47:45.805Z,23.44
2024-04-13T20:50:13.475Z,23.38
2024-04-13T20:52:52.505Z,23.33
2024-04-13T20:55:25.526Z,23.27
2024-04-13T20:57:54.032Z,23.22
2024-04-13T21:00:21.159Z,23.17
2024-04-13T21:02:48.932Z,23.13
2024-04-13T21:05:16.993Z,23.07
2024-04-13T21:07:44.167Z,22.97
2024-04-13T21:10:11.849Z,22.97
2024-04-13T21:12:39.188Z,22.93
2024-04-13T21:15:07.504Z,22.91
2024-04-13T21:17:34.614Z,22.89
2024-04-13T21:20:01.640Z,22.82
2024-04-13T21:22:29.351Z,22.77
2024-04-13T21:24:57.616Z,22.73
2024-04-13T21:27:24.829Z,22.68
2024-04-13T21:29:51.837Z,22.63
2024-04-13T21:32:20.133Z,22.61
2024-04-13T21:34:50.616Z,22.57
2024-04-13T21:37:18.147Z,22.51
2024-04-13T21:39:45.545Z,22.45
2024-04-13T21:42:13.424Z,22.26
2024-04-13T21:44:40.762Z,22.19
2024-04-13T21:47:09.395Z,22.16
2024-04-13T21:49:37.614Z,22.14
2024-04-13T21:52:05.403Z,22.11
2024-04-13T21:54:32.400Z,22.10
2024-04-13T21:56:59.664Z,22.07
2024-04-13T21:59:27.366Z,22.04
2024-04-13T22:01:54.415Z,22.00
2024-04-13T22:04:23.454Z,21.97
2024-04-13T22:06:50.695Z,21.92
2024-04-13T22:09:17.904Z,21.88
2024-04-13T22:11:49.901Z,21.83
2024-04-13T22:14:17.231Z,21.83
2024-04-13T22:16:44.229Z,21.85
2024-04-13T22:19:11.620Z,21.88
2024-04-13T22:21:38.711Z,21.86
2024-04-13T22:24:06.502Z,21.80
2024-04-13T22:26:35.929Z,21.75
2024-04-13T22:29:03.210Z,21.70
2024-04-13T22:31:30.253Z,21.67
2024-04-13T22:33:58.950Z,21.62
2024-04-13T22:36:31.312Z,21.57
2024-04-13T22:38:58.578Z,21.52
2024-04-13T22:41:25.423Z,21.47
2024-04-13T22:43:52.219Z,21.42
2024-04-13T22:46:19.129Z,21.36
2024-04-13T22:48:47.076Z,21.28
2024-04-13T22:51:14.106Z,21.20
2024-04-13T22:53:41.153Z,21.16
2024-04-13T22:56:08.265Z,21.10
2024-04-13T22:58:35.757Z,21.08
2024-04-13T23:01:03.827Z,21.05
2024-04-13T23:03:31.038Z,21.02
2024-04-13T23:06:00.513Z,21.02
2024-04-13T23:08:27.411Z,21.03
2024-04-13T23:10:54.810Z,21.05
2024-04-13T23:13:21.947Z,21.09
2024-04-13T23:15:49.944Z,21.12
2024-04-13T23:18:21.858Z,21.15
2024-04-13T23:20:52.208Z,21.17
2024-04-13T23:23:19.356Z,21.19
2024-04-13T23:25:47.370Z,21.24
2024-04-13T23:28:14.922Z,21.26
2024-04-13T23:30:42.080Z,21.24
2024-04-13T23:33:10.648Z,21.21
2024-04-13T23:35:37.695Z,21.20
2024-04-13T23:38:04.713Z,21.20
2024-04-13T23:40:31.807Z,21.19
2024-04-13T23:42:58.692Z,21.18
2024-04-13T23:45:26.622Z,21.17
2024-04-13T23:47:53.782Z,21.19
2024-04-13T23:50:22.672Z,21.17
2024-04-13T23:52:49.727Z,21.19
2024-04-13T23:55:17.560Z,21.23
2024-04-13T23:57:45.621Z,21.24
